createdAt,value
2023-03-10T00:00:38.460Z,6.47
2023-03-10T00:01:40.027Z,6.40
2023-03-10T00:02:46.585Z,6.50
2023-03-10T00:03:49.304Z,6.35
2023-03-10T00:04:54.023Z,5.43
2023-03-10T00:05:56.009Z,5.07
2023-03-10T00:06:57.566Z,5.13
2023-03-10T00:07:59.171Z,5.28
2023-03-10T00:09:01.217Z,4.60
2023-03-10T00:10:02.903Z,4.43
2023-03-10T00:11:04.693Z,4.20
2023-03-10T00:12:06.849Z,4.30
2023-03-10T00:13:08.454Z,4.38
2023-03-10T00:14:10.056Z,4.50
2023-03-10T00:15:12.525Z,4.40
2023-03-10T00:16:21.204Z,3.90
2023-03-10T00:17:22.966Z,3.90
2023-03-10T00:18:24.563Z,4.80
2023-03-10T00:19:26.675Z,3.65
2023-03-10T00:20:28.343Z,3.65
2023-03-10T00:21:31.684Z,4.38
2023-03-10T00:22:34.815Z,4.28
2023-03-10T00:23:37.531Z,5.22
2023-03-10T00:24:39.083Z,4.97
2023-03-10T00:25:40.601Z,6.15
2023-03-10T00:26:42.197Z,5.72
2023-03-10T00:27:43.958Z,5.63
2023-03-10T00:28:45.666Z,5.88
2023-03-10T00:29:51.384Z,5.70
2023-03-10T00:31:04.500Z,5.35
2023-03-10T00:32:06.678Z,5.43
2023-03-10T00:33:08.225Z,4.57
2023-03-10T00:34:13.570Z,4.50
2023-03-10T00:35:15.609Z,4.28
2023-03-10T00:36:20.605Z,4.05
2023-03-10T00:37:22.178Z,4.20
2023-03-10T00:38:23.737Z,3.92
2023-03-10T00:39:25.265Z,3.20
2023-03-10T00:40:26.845Z,2.53
2023-03-10T00:41:33.528Z,3.70
2023-03-10T00:42:35.123Z,4.03
2023-03-10T00:43:36.855Z,4.70
2023-03-10T00:44:38.388Z,3.75
2023-03-10T00:45:39.924Z,5.30
2023-03-10T00:46:41.965Z,6.30
2023-03-10T00:47:43.678Z,7.53
2023-03-10T00:48:45.588Z,7.85
2023-03-10T00:49:48.172Z,8.13
2023-03-10T00:50:49.859Z,7.72
2023-03-10T00:51:51.396Z,7.30
2023-03-10T00:52:53.053Z,7.32
2023-03-10T00:53:54.600Z,7.20
2023-03-10T00:54:56.206Z,6.45
2023-03-10T00:55:59.142Z,6.32
2023-03-10T00:57:00.761Z,5.50
2023-03-10T00:58:02.326Z,5.95
2023-03-10T00:59:04.387Z,4.80
2023-03-10T01:00:07.338Z,4.75
2023-03-10T01:01:18.920Z,5.85
2023-03-10T01:02:20.577Z,6.88
2023-03-10T01:03:23.567Z,7.95
2023-03-10T01:04:25.192Z,7.07
2023-03-10T01:05:29.063Z,6.68
2023-03-10T01:06:30.684Z,6.93
2023-03-10T01:07:32.227Z,7.53
2023-03-10T01:08:33.781Z,7.55
2023-03-10T01:09:35.403Z,7.40
2023-03-10T01:10:36.964Z,7.45
2023-03-10T01:11:38.558Z,7.20
2023-03-10T01:12:40.097Z,6.95
2023-03-10T01:13:42.122Z,7.22
2023-03-10T01:14:43.719Z,7.45
2023-03-10T01:15:47.848Z,7.00
2023-03-10T01:16:49.472Z,6.72
2023-03-10T01:17:51.097Z,6.93
2023-03-10T01:18:52.700Z,7.07
2023-03-10T01:19:54.298Z,7.18
2023-03-10T01:20:55.865Z,7.63
2023-03-10T01:21:57.409Z,8.05
2023-03-10T01:22:59.969Z,7.80
2023-03-10T01:24:01.842Z,7.93
2023-03-10T01:25:03.539Z,7.90
2023-03-10T01:26:05.128Z,7.22
2023-03-10T01:27:06.695Z,7.20
2023-03-10T01:28:08.421Z,8.35
2023-03-10T01:29:09.982Z,8.10
2023-03-10T01:30:12.253Z,7.78
2023-03-10T01:31:14.332Z,7.47
2023-03-10T01:32:15.952Z,7.13
2023-03-10T01:33:18.344Z,7.55
2023-03-10T01:34:19.926Z,7.63
2023-03-10T01:35:21.476Z,10.15
2023-03-10T01:36:26.229Z,34.58
2023-03-10T01:37:27.823Z,20.10
2023-03-10T01:38:29.343Z,19.98
2023-03-10T01:39:30.866Z,18.02
2023-03-10T01:40:32.863Z,13.98
2023-03-10T01:41:38.558Z,11.50
2023-03-10T01:42:40.070Z,8.55
2023-03-10T01:43:43.592Z,8.40
2023-03-10T01:45:15.348Z,7.00
2023-03-10T01:47:27.286Z,7.47
2023-03-10T01:48:32.732Z,8.20
2023-03-10T01:49:41.611Z,6.95
2023-03-10T01:50:46.583Z,7.15
2023-03-10T01:51:53.298Z,7.00
2023-03-10T01:52:58.454Z,6.75
2023-03-10T01:54:01.988Z,6.95
2023-03-10T01:55:11.683Z,6.78
2023-03-10T01:56:14.268Z,4.20
2023-03-10T01:57:19.078Z,4.13
2023-03-10T01:58:24.847Z,3.30
2023-03-10T01:59:27.848Z,2.90
2023-03-10T02:00:29.689Z,2.95
2023-03-10T02:01:32.149Z,2.83
2023-03-10T02:02:37.780Z,4.40
2023-03-10T02:04:03.390Z,4.20
2023-03-10T02:05:05.292Z,3.83
2023-03-10T02:06:11.218Z,4.03
2023-03-10T02:07:13.958Z,4.13
2023-03-10T02:08:18.150Z,3.50
2023-03-10T02:09:21.180Z,3.67
2023-03-10T02:10:22.740Z,3.78
2023-03-10T02:11:25.154Z,3.90
2023-03-10T02:12:26.690Z,4.53
2023-03-10T02:13:28.214Z,4.05
2023-03-10T02:14:31.820Z,4.18
2023-03-10T02:15:34.212Z,4.10
2023-03-10T02:16:35.977Z,3.60
2023-03-10T02:17:38.026Z,4.10
2023-03-10T02:18:43.626Z,4.05
2023-03-10T02:20:16.419Z,4.25
2023-03-10T02:21:35.298Z,3.88
2023-03-10T02:22:38.432Z,3.90
2023-03-10T02:24:00.322Z,4.97
2023-03-10T02:25:33.849Z,5.25
2023-03-10T02:26:59.656Z,5.05
2023-03-10T02:28:01.698Z,4.65
2023-03-10T02:29:08.621Z,3.63
2023-03-10T02:30:22.074Z,3.58
2023-03-10T02:31:24.146Z,3.70
2023-03-10T02:32:26.952Z,3.80
2023-03-10T02:33:32.052Z,3.53
2023-03-10T02:34:33.756Z,3.30
2023-03-10T02:35:35.738Z,3.90
2023-03-10T02:36:37.309Z,4.30
2023-03-10T02:37:39.947Z,4.30
2023-03-10T02:38:41.688Z,3.70
2023-03-10T02:39:43.230Z,3.78
2023-03-10T02:40:46.301Z,3.85
2023-03-10T02:41:48.182Z,3.80
2023-03-10T02:42:49.937Z,3.58
2023-03-10T02:43:51.954Z,4.10
2023-03-10T02:44:54.439Z,4.03
2023-03-10T02:46:00.007Z,3.90
2023-03-10T02:47:02.015Z,3.50
2023-03-10T02:48:03.917Z,3.40
2023-03-10T02:49:07.507Z,3.50
2023-03-10T02:50:12.471Z,3.35
2023-03-10T02:51:18.739Z,3.40
2023-03-10T02:52:41.542Z,3.40
2023-03-10T02:53:43.163Z,3.42
2023-03-10T02:54:44.737Z,3.25
2023-03-10T02:55:46.748Z,3.35
2023-03-10T02:56:50.610Z,3.53
2023-03-10T02:57:52.194Z,3.50
2023-03-10T02:58:53.782Z,3.53
2023-03-10T02:59:55.391Z,3.15
2023-03-10T03:00:57.779Z,3.55
2023-03-10T03:01:59.421Z,3.58
2023-03-10T03:03:00.972Z,3.15
2023-03-10T03:04:02.970Z,3.53
2023-03-10T03:05:04.979Z,3.60
2023-03-10T03:06:06.769Z,3.78
2023-03-10T03:07:08.376Z,5.35
2023-03-10T03:08:10.537Z,6.38
2023-03-10T03:09:12.142Z,8.43
2023-03-10T03:10:13.743Z,8.13
2023-03-10T03:11:16.022Z,8.32
2023-03-10T03:12:17.558Z,8.93
2023-03-10T03:13:19.340Z,9.45
2023-03-10T03:14:21.708Z,9.38
2023-03-10T03:15:23.841Z,10.57
2023-03-10T03:16:25.475Z,10.50
2023-03-10T03:17:28.153Z,10.57
2023-03-10T03:18:29.729Z,11.00
2023-03-10T03:19:31.289Z,10.27
2023-03-10T03:20:33.631Z,11.23
2023-03-10T03:21:35.153Z,10.95
2023-03-10T03:22:36.685Z,11.15
2023-03-10T03:23:39.048Z,11.43
2023-03-10T03:24:40.629Z,10.38
2023-03-10T03:25:42.746Z,10.90
2023-03-10T03:26:44.776Z,11.57
2023-03-10T03:27:47.748Z,11.18
2023-03-10T03:28:49.694Z,10.75
2023-03-10T03:29:51.210Z,11.18
2023-03-10T03:30:52.707Z,11.27
2023-03-10T03:31:54.318Z,11.02
2023-03-10T03:32:56.471Z,11.98
2023-03-10T03:33:57.995Z,11.50
2023-03-10T03:34:59.989Z,10.88
2023-03-10T03:36:02.306Z,11.93
2023-03-10T03:37:03.897Z,10.98
2023-03-10T03:38:05.965Z,10.82
2023-03-10T03:39:07.913Z,11.30
2023-03-10T03:40:13.968Z,11.65
2023-03-10T03:41:15.590Z,10.73
2023-03-10T03:42:17.391Z,11.77
2023-03-10T03:43:18.945Z,10.55
2023-03-10T03:44:20.522Z,10.38
2023-03-10T03:45:25.244Z,9.98
2023-03-10T03:46:26.877Z,10.60
2023-03-10T03:47:28.459Z,10.50
2023-03-10T03:48:31.136Z,10.50
2023-03-10T03:49:35.427Z,10.77
2023-03-10T03:50:36.967Z,10.15
2023-03-10T03:51:38.533Z,10.73
2023-03-10T03:52:40.700Z,10.15
2023-03-10T03:53:42.229Z,8.98
2023-03-10T03:54:43.826Z,10.30
2023-03-10T03:55:45.426Z,9.38
2023-03-10T03:56:47.040Z,10.35
2023-03-10T03:57:48.982Z,10.38
2023-03-10T03:58:50.533Z,14.20
2023-03-10T03:59:52.615Z,12.75
2023-03-10T04:00:54.385Z,11.90
2023-03-10T04:01:55.923Z,12.27
2023-03-10T04:02:57.449Z,12.90
2023-03-10T04:03:59.184Z,12.38
2023-03-10T04:05:01.098Z,11.90
2023-03-10T04:06:02.630Z,13.05
2023-03-10T04:07:04.325Z,12.68
2023-03-10T04:08:06.248Z,11.43
2023-03-10T04:09:08.339Z,13.15
2023-03-10T04:10:13.024Z,12.55
2023-03-10T04:11:14.567Z,13.43
2023-03-10T04:12:16.220Z,13.50
2023-03-10T04:13:17.757Z,13.25
2023-03-10T04:14:19.500Z,12.10
2023-03-10T04:15:21.248Z,12.25
2023-03-10T04:16:22.841Z,12.55
2023-03-10T04:17:24.385Z,12.45
2023-03-10T04:18:26.490Z,11.95
2023-03-10T04:19:28.160Z,13.20
2023-03-10T04:20:29.827Z,12.13
2023-03-10T04:21:31.357Z,11.60
2023-03-10T04:22:33.198Z,11.57
2023-03-10T04:23:34.746Z,11.52
2023-03-10T04:24:39.472Z,10.93
2023-03-10T04:25:41.541Z,11.27
2023-03-10T04:26:43.594Z,9.57
2023-03-10T04:27:45.187Z,9.85
2023-03-10T04:28:46.750Z,9.40
2023-03-10T04:29:48.364Z,11.57
2023-03-10T04:30:49.935Z,12.85
2023-03-10T04:32:04.756Z,12.80
2023-03-10T04:33:07.626Z,12.73
2023-03-10T04:34:09.847Z,12.00
2023-03-10T04:35:13.342Z,11.70
2023-03-10T04:36:15.605Z,11.73
2023-03-10T04:37:17.334Z,11.43
2023-03-10T04:38:19.849Z,12.27
2023-03-10T04:39:21.404Z,12.13
2023-03-10T04:40:22.996Z,11.35
2023-03-10T04:41:24.897Z,11.88
2023-03-10T04:42:28.146Z,11.40
2023-03-10T04:43:29.738Z,12.13
2023-03-10T04:44:31.746Z,11.82
2023-03-10T04:45:33.342Z,12.38
2023-03-10T04:46:35.013Z,10.65
2023-03-10T04:47:36.725Z,12.32
2023-03-10T04:48:38.713Z,11.38
2023-03-10T04:49:40.274Z,10.63
2023-03-10T04:50:41.823Z,11.00
2023-03-10T04:51:43.410Z,11.73
2023-03-10T04:52:46.372Z,10.27
2023-03-10T04:53:48.028Z,10.70
2023-03-10T04:54:49.595Z,11.90
2023-03-10T04:55:51.633Z,10.90
2023-03-10T04:56:53.218Z,11.55
2023-03-10T04:57:54.759Z,11.18
2023-03-10T04:58:56.393Z,10.57
2023-03-10T04:59:57.936Z,10.40
2023-03-10T05:01:03.639Z,10.20
2023-03-10T05:02:05.549Z,11.35
2023-03-10T05:03:07.119Z,11.52
2023-03-10T05:04:10.082Z,11.27
2023-03-10T05:05:11.887Z,12.65
2023-03-10T05:06:15.617Z,12.32
2023-03-10T05:07:17.205Z,12.60
2023-03-10T05:08:18.800Z,11.60
2023-03-10T05:09:20.520Z,11.30
2023-03-10T05:10:22.080Z,12.45
2023-03-10T05:11:24.110Z,12.85
2023-03-10T05:12:25.761Z,12.18
2023-03-10T05:13:28.920Z,12.55
2023-03-10T05:14:31.647Z,12.68
2023-03-10T05:15:36.108Z,11.40
2023-03-10T05:16:37.888Z,12.18
2023-03-10T05:17:39.469Z,10.82
2023-03-10T05:18:41.462Z,12.55
2023-03-10T05:19:43.066Z,10.57
2023-03-10T05:20:44.615Z,13.15
2023-03-10T05:21:46.181Z,14.00
2023-03-10T05:22:47.722Z,12.93
2023-03-10T05:23:50.019Z,13.05
2023-03-10T05:24:51.784Z,14.68
2023-03-10T05:25:53.345Z,13.82
2023-03-10T05:26:55.008Z,12.93
2023-03-10T05:27:56.654Z,12.85
2023-03-10T05:28:58.382Z,12.35
2023-03-10T05:30:00.187Z,12.10
2023-03-10T05:31:01.832Z,12.43
2023-03-10T05:32:03.485Z,13.23
2023-03-10T05:33:05.022Z,12.60
2023-03-10T05:34:06.617Z,12.95
2023-03-10T05:35:08.627Z,12.07
2023-03-10T05:36:12.985Z,12.45
2023-03-10T05:37:14.600Z,10.45
2023-03-10T05:38:17.018Z,11.75
2023-03-10T05:39:18.606Z,10.90
2023-03-10T05:40:20.331Z,12.15
2023-03-10T05:41:22.107Z,11.07
2023-03-10T05:42:23.630Z,11.27
2023-03-10T05:43:25.241Z,11.88
2023-03-10T05:44:26.927Z,11.82
2023-03-10T05:45:28.720Z,11.32
2023-03-10T05:46:30.755Z,11.90
2023-03-10T05:47:33.873Z,11.55
2023-03-10T05:48:35.459Z,11.60
2023-03-10T05:49:38.716Z,11.80
2023-03-10T05:50:40.375Z,11.40
2023-03-10T05:51:41.968Z,11.75
2023-03-10T05:52:44.477Z,11.85
2023-03-10T05:53:46.625Z,10.85
2023-03-10T05:54:48.214Z,11.18
2023-03-10T05:55:49.748Z,10.80
2023-03-10T05:56:51.790Z,10.20
2023-03-10T05:57:53.300Z,10.75
2023-03-10T05:58:54.815Z,9.32
2023-03-10T05:59:56.320Z,8.77
2023-03-10T06:00:57.887Z,9.60
2023-03-10T06:01:59.447Z,8.85
2023-03-10T06:03:01.753Z,9.90
2023-03-10T06:04:03.914Z,8.75
2023-03-10T06:05:11.171Z,8.85
2023-03-10T06:06:13.400Z,8.52
2023-03-10T06:07:14.973Z,8.25
2023-03-10T06:08:16.853Z,9.70
2023-03-10T06:09:18.369Z,9.07
2023-03-10T06:10:20.004Z,9.15
2023-03-10T06:11:21.609Z,11.13
2023-03-10T06:12:23.142Z,10.30
2023-03-10T06:13:25.974Z,10.90
2023-03-10T06:14:27.566Z,10.90
2023-03-10T06:15:30.205Z,10.55
2023-03-10T06:16:31.819Z,10.68
2023-03-10T06:17:33.491Z,11.85
2023-03-10T06:18:35.324Z,10.70
2023-03-10T06:19:36.872Z,10.52
2023-03-10T06:20:39.598Z,10.90
2023-03-10T06:21:42.450Z,10.50
2023-03-10T06:22:44.018Z,10.05
2023-03-10T06:23:45.619Z,10.10
2023-03-10T06:24:47.240Z,9.55
2023-03-10T06:25:59.085Z,8.52
2023-03-10T06:27:00.711Z,8.10
2023-03-10T06:28:02.287Z,9.13
2023-03-10T06:29:04.426Z,8.50
2023-03-10T06:30:06.633Z,7.82
2023-03-10T06:31:21.505Z,9.32
2023-03-10T06:32:23.247Z,8.98
2023-03-10T06:33:25.437Z,10.00
2023-03-10T06:34:27.065Z,8.63
2023-03-10T06:35:28.942Z,8.85
2023-03-10T06:36:33.709Z,8.98
2023-03-10T06:37:35.381Z,8.65
2023-03-10T06:38:36.955Z,9.13
2023-03-10T06:39:39.545Z,7.88
2023-03-10T06:40:41.281Z,8.40
2023-03-10T06:41:42.817Z,8.00
2023-03-10T06:42:44.356Z,8.30
2023-03-10T06:43:46.250Z,8.30
2023-03-10T06:44:49.288Z,8.07
2023-03-10T06:45:51.173Z,8.52
2023-03-10T06:46:52.755Z,8.85
2023-03-10T06:47:54.388Z,9.07
2023-03-10T06:48:56.278Z,8.77
2023-03-10T06:49:58.450Z,8.38
2023-03-10T06:51:00.049Z,8.90
2023-03-10T06:52:01.633Z,9.48
2023-03-10T06:53:03.266Z,9.57
2023-03-10T06:54:05.242Z,9.13
2023-03-10T06:55:07.189Z,8.68
2023-03-10T06:56:15.292Z,8.93
2023-03-10T06:57:18.674Z,8.77
2023-03-10T06:58:21.401Z,8.77
2023-03-10T06:59:23.161Z,8.10
2023-03-10T07:00:24.775Z,8.10
2023-03-10T07:01:32.090Z,8.30
2023-03-10T07:02:33.764Z,8.10
2023-03-10T07:03:36.225Z,8.63
2023-03-10T07:04:37.964Z,9.02
2023-03-10T07:05:39.603Z,9.43
2023-03-10T07:06:41.292Z,8.68
2023-03-10T07:07:42.950Z,8.60
2023-03-10T07:08:44.553Z,9.13
2023-03-10T07:09:46.348Z,8.77
2023-03-10T07:10:48.607Z,8.68
2023-03-10T07:11:50.784Z,8.38
2023-03-10T07:12:55.294Z,8.00
2023-03-10T07:13:56.956Z,8.70
2023-03-10T07:14:58.789Z,8.05
2023-03-10T07:16:00.346Z,8.43
2023-03-10T07:17:03.206Z,8.05
2023-03-10T07:18:04.975Z,8.63
2023-03-10T07:19:06.571Z,7.95
2023-03-10T07:20:09.035Z,8.40
2023-03-10T07:21:12.300Z,7.32
2023-03-10T07:22:13.915Z,8.30
2023-03-10T07:23:15.905Z,7.93
2023-03-10T07:24:18.145Z,8.27
2023-03-10T07:25:20.033Z,7.55
2023-03-10T07:26:21.606Z,8.38
2023-03-10T07:27:23.482Z,7.90
2023-03-10T07:28:26.390Z,8.52
2023-03-10T07:29:28.199Z,8.10
2023-03-10T07:30:29.923Z,7.10
2023-03-10T07:31:32.691Z,7.10
2023-03-10T07:32:34.536Z,7.53
2023-03-10T07:33:36.439Z,8.15
2023-03-10T07:34:38.001Z,8.30
2023-03-10T07:35:39.563Z,8.57
2023-03-10T07:36:41.124Z,7.85
2023-03-10T07:37:42.646Z,6.80
2023-03-10T07:38:44.573Z,7.00
2023-03-10T07:39:46.198Z,6.50
2023-03-10T07:40:47.754Z,6.38
2023-03-10T07:41:49.263Z,6.82
2023-03-10T07:42:56.679Z,6.75
2023-03-10T07:43:58.452Z,7.00
2023-03-10T07:45:00.148Z,6.55
2023-03-10T07:46:06.034Z,6.03
2023-03-10T07:47:07.674Z,7.13
2023-03-10T07:48:09.262Z,6.25
2023-03-10T07:49:10.880Z,7.05
2023-03-10T07:50:12.828Z,6.57
2023-03-10T07:51:14.536Z,6.95
2023-03-10T07:52:16.586Z,6.90
2023-03-10T07:53:18.099Z,7.15
2023-03-10T07:54:19.697Z,7.53
2023-03-10T07:55:21.753Z,8.40
2023-03-10T07:56:23.300Z,8.80
2023-03-10T07:57:24.848Z,9.15
2023-03-10T07:58:26.399Z,10.07
2023-03-10T07:59:27.943Z,9.50
2023-03-10T08:00:29.467Z,10.43
2023-03-10T08:01:31.008Z,10.70
2023-03-10T08:02:32.573Z,11.20
2023-03-10T08:03:35.009Z,11.40
2023-03-10T08:04:36.733Z,11.73
2023-03-10T08:05:41.862Z,11.93
2023-03-10T08:06:43.428Z,12.18
2023-03-10T08:07:45.137Z,11.50
2023-03-10T08:08:47.007Z,11.55
2023-03-10T08:09:52.686Z,9.88
2023-03-10T08:11:02.248Z,10.10
2023-03-10T08:12:04.429Z,9.98
2023-03-10T08:13:06.012Z,10.10
2023-03-10T08:14:07.554Z,10.23
2023-03-10T08:15:11.119Z,10.95
2023-03-10T08:16:14.966Z,10.57
2023-03-10T08:17:16.662Z,11.00
2023-03-10T08:18:18.236Z,11.07
2023-03-10T08:19:19.840Z,10.45
2023-03-10T08:20:21.419Z,11.02
2023-03-10T08:21:23.025Z,11.75
2023-03-10T08:22:24.652Z,10.43
2023-03-10T08:23:26.273Z,10.52
2023-03-10T08:24:28.146Z,9.98
2023-03-10T08:25:29.663Z,9.95
2023-03-10T08:26:31.249Z,10.70
2023-03-10T08:27:32.846Z,10.60
2023-03-10T08:28:35.340Z,10.30
2023-03-10T08:29:36.961Z,10.63
2023-03-10T08:30:52.146Z,10.65
2023-03-10T08:32:01.428Z,9.73
2023-03-10T08:33:03.070Z,9.35
2023-03-10T08:34:04.697Z,9.57
2023-03-10T08:35:06.844Z,10.30
2023-03-10T08:36:13.189Z,9.93
2023-03-10T08:37:14.782Z,8.98
2023-03-10T08:38:16.379Z,9.48
2023-03-10T08:39:17.919Z,9.45
2023-03-10T08:40:19.503Z,9.18
2023-03-10T08:41:25.752Z,8.23
2023-03-10T08:42:27.832Z,9.48
2023-03-10T08:43:29.395Z,9.35
2023-03-10T08:44:30.996Z,8.45
2023-03-10T08:45:32.970Z,10.23
2023-03-10T08:46:34.964Z,9.90
2023-03-10T08:47:37.023Z,8.57
2023-03-10T08:48:42.226Z,8.30
2023-03-10T08:49:49.021Z,6.90
2023-03-10T08:50:50.612Z,6.80
2023-03-10T08:51:52.232Z,7.00
2023-03-10T08:52:53.794Z,8.80
2023-03-10T08:53:59.119Z,7.88
2023-03-10T08:55:00.762Z,8.05
2023-03-10T08:56:02.655Z,7.60
2023-03-10T08:57:04.301Z,6.50
2023-03-10T08:58:06.003Z,5.97
2023-03-10T08:59:07.554Z,6.03
2023-03-10T09:00:12.522Z,6.07
2023-03-10T09:01:16.659Z,6.30
2023-03-10T09:02:20.615Z,6.95
2023-03-10T09:03:22.825Z,6.28
2023-03-10T09:04:24.538Z,6.13
2023-03-10T09:05:27.997Z,5.13
2023-03-10T09:06:30.098Z,5.15
2023-03-10T09:07:31.780Z,4.82
2023-03-10T09:08:33.667Z,4.63
2023-03-10T09:09:35.373Z,4.65
2023-03-10T09:10:37.555Z,5.25
2023-03-10T09:11:40.589Z,5.80
2023-03-10T09:12:42.147Z,5.72
2023-03-10T09:13:43.772Z,5.30
2023-03-10T09:14:45.411Z,5.40
2023-03-10T09:15:47.019Z,5.40
2023-03-10T09:16:48.730Z,5.82
2023-03-10T09:17:50.465Z,5.75
2023-03-10T09:18:52.023Z,6.03
2023-03-10T09:19:54.054Z,6.70
2023-03-10T09:20:55.609Z,6.18
2023-03-10T09:21:57.618Z,5.60
2023-03-10T09:22:59.137Z,5.50
2023-03-10T09:24:01.415Z,6.18
2023-03-10T09:25:03.210Z,5.50
2023-03-10T09:26:04.953Z,5.85
2023-03-10T09:27:06.561Z,5.82
2023-03-10T09:28:09.733Z,6.15
2023-03-10T09:29:18.949Z,6.80
2023-03-10T09:30:25.960Z,5.75
2023-03-10T09:31:37.436Z,7.30
2023-03-10T09:32:39.381Z,6.10
2023-03-10T09:33:40.915Z,5.75
2023-03-10T09:34:42.484Z,6.22
2023-03-10T09:35:52.325Z,6.88
2023-03-10T09:36:59.215Z,6.95
2023-03-10T09:38:00.790Z,6.72
2023-03-10T09:39:02.949Z,7.57
2023-03-10T09:40:06.458Z,7.70
2023-03-10T09:41:36.961Z,8.00
2023-03-10T09:42:46.991Z,7.88
2023-03-10T09:43:59.451Z,7.75
2023-03-10T09:45:17.540Z,7.90
2023-03-10T09:46:54.750Z,7.28
2023-03-10T09:48:11.719Z,7.43
2023-03-10T09:49:37.469Z,8.25
2023-03-10T09:50:46.453Z,8.30
2023-03-10T09:51:49.904Z,8.25
2023-03-10T09:53:15.635Z,7.47
2023-03-10T09:54:39.124Z,7.80
2023-03-10T09:55:47.873Z,7.55
2023-03-10T09:56:50.517Z,7.07
2023-03-10T09:57:57.239Z,7.25
2023-03-10T09:59:11.587Z,6.82
2023-03-10T10:00:21.953Z,6.78
2023-03-10T10:01:27.886Z,7.25
2023-03-10T10:02:37.893Z,7.93
2023-03-10T10:03:53.001Z,7.50
2023-03-10T10:05:03.731Z,6.70
2023-03-10T10:06:06.961Z,6.90
2023-03-10T10:07:17.540Z,6.72
2023-03-10T10:08:22.394Z,7.15
2023-03-10T10:09:42.187Z,6.55
2023-03-10T10:10:47.099Z,6.82
2023-03-10T10:11:48.697Z,6.10
2023-03-10T10:12:52.535Z,6.20
2023-03-10T10:14:27.735Z,6.75
2023-03-10T10:15:34.983Z,6.07
2023-03-10T10:16:55.502Z,6.55
2023-03-10T10:18:46.598Z,5.85
2023-03-10T10:19:48.794Z,5.75
2023-03-10T10:20:50.460Z,5.68
2023-03-10T10:22:07.161Z,6.45
2023-03-10T10:23:23.608Z,6.13
2023-03-10T10:24:25.388Z,6.13
2023-03-10T10:25:31.383Z,5.55
2023-03-10T10:26:32.985Z,5.72
2023-03-10T10:27:38.272Z,5.40
2023-03-10T10:28:42.073Z,5.43
2023-03-10T10:29:47.094Z,6.05
2023-03-10T10:30:49.248Z,6.45
2023-03-10T10:32:04.915Z,6.03
2023-03-10T10:33:11.817Z,6.30
2023-03-10T10:34:22.848Z,6.30
2023-03-10T10:36:33.526Z,6.40
2023-03-10T10:37:39.536Z,6.20
2023-03-10T10:38:52.628Z,5.85
2023-03-10T10:39:56.807Z,6.60
2023-03-10T10:41:01.812Z,6.55
2023-03-10T10:42:24.654Z,5.88
2023-03-10T10:43:26.199Z,6.28
2023-03-10T10:44:27.733Z,6.65
2023-03-10T10:45:40.284Z,6.35
2023-03-10T10:46:56.559Z,5.90
2023-03-10T10:47:58.511Z,5.95
2023-03-10T10:49:05.295Z,6.38
2023-03-10T10:50:23.320Z,6.60
2023-03-10T10:51:30.382Z,6.55
2023-03-10T10:52:33.528Z,6.03
2023-03-10T10:53:40.279Z,5.85
2023-03-10T10:54:43.694Z,6.20
2023-03-10T10:55:47.906Z,5.93
2023-03-10T10:56:55.177Z,5.85
2023-03-10T10:58:01.671Z,6.13
2023-03-10T10:59:26.977Z,6.45
2023-03-10T11:00:38.325Z,5.90
2023-03-10T11:01:50.744Z,5.78
2023-03-10T11:02:53.625Z,5.00
2023-03-10T11:04:06.381Z,5.20
2023-03-10T11:05:16.706Z,5.13
2023-03-10T11:06:18.196Z,4.97
2023-03-10T11:07:27.144Z,5.72
2023-03-10T11:08:35.077Z,5.57
2023-03-10T11:09:36.644Z,5.13
2023-03-10T11:10:38.850Z,5.57
2023-03-10T11:12:07.578Z,5.50
2023-03-10T11:13:32.035Z,4.80
2023-03-10T11:14:52.564Z,5.35
2023-03-10T11:16:09.098Z,5.15
2023-03-10T11:17:36.872Z,4.95
2023-03-10T11:18:45.945Z,5.22
2023-03-10T11:19:56.315Z,5.30
2023-03-10T11:21:23.774Z,5.30
2023-03-10T11:22:36.509Z,5.63
2023-03-10T11:23:49.621Z,4.95
2023-03-10T11:25:02.608Z,5.55
2023-03-10T11:26:22.722Z,5.10
2023-03-10T11:27:48.767Z,6.05
2023-03-10T11:29:08.592Z,5.30
2023-03-10T11:30:21.217Z,4.95
2023-03-10T11:31:37.627Z,4.57
2023-03-10T11:32:54.429Z,5.20
2023-03-10T11:34:23.493Z,5.60
2023-03-10T11:35:36.681Z,5.28
2023-03-10T11:37:14.426Z,4.90
2023-03-10T11:38:24.652Z,5.13
2023-03-10T11:39:28.918Z,5.25
2023-03-10T11:40:48.520Z,4.93
2023-03-10T11:42:14.108Z,4.85
2023-03-10T11:43:38.725Z,4.35
2023-03-10T11:44:52.024Z,4.65
2023-03-10T11:45:55.163Z,4.57
2023-03-10T11:46:56.711Z,4.85
2023-03-10T11:48:06.175Z,4.30
2023-03-10T11:49:12.702Z,4.65
2023-03-10T11:50:38.294Z,4.50
2023-03-10T11:51:46.228Z,4.53
2023-03-10T11:52:50.843Z,5.00
2023-03-10T11:53:55.536Z,4.30
2023-03-10T11:55:17.703Z,4.88
2023-03-10T11:56:22.176Z,4.47
2023-03-10T11:57:25.550Z,4.68
2023-03-10T11:58:52.004Z,5.00
2023-03-10T11:59:57.765Z,5.53
2023-03-10T12:01:00.628Z,4.07
2023-03-10T12:02:26.915Z,4.65
2023-03-10T12:03:40.547Z,4.38
2023-03-10T12:04:50.300Z,4.50
2023-03-10T12:05:58.603Z,4.38
2023-03-10T12:07:03.748Z,4.53
2023-03-10T12:08:06.787Z,4.40
2023-03-10T12:09:18.300Z,4.30
2023-03-10T12:10:21.966Z,4.25
2023-03-10T12:11:27.233Z,4.35
2023-03-10T12:12:36.201Z,3.92
2023-03-10T12:13:46.316Z,5.15
2023-03-10T12:14:48.665Z,6.80
2023-03-10T12:15:54.664Z,4.93
2023-03-10T12:16:56.810Z,4.10
2023-03-10T12:17:58.743Z,4.50
2023-03-10T12:19:00.559Z,4.22
2023-03-10T12:20:09.045Z,4.55
2023-03-10T12:21:19.977Z,4.88
2023-03-10T12:22:21.491Z,4.90
2023-03-10T12:23:26.795Z,5.10
2023-03-10T12:24:44.977Z,4.22
2023-03-10T12:25:47.851Z,4.18
2023-03-10T12:26:51.458Z,4.30
2023-03-10T12:28:17.190Z,3.88
2023-03-10T12:29:21.737Z,3.30
2023-03-10T12:30:57.661Z,3.60
2023-03-10T12:31:59.643Z,4.32
2023-03-10T12:33:01.402Z,3.45
2023-03-10T12:34:17.277Z,3.28
2023-03-10T12:35:29.389Z,3.03
2023-03-10T12:36:33.576Z,3.42
2023-03-10T12:37:35.143Z,3.00
2023-03-10T12:39:24.257Z,2.92
2023-03-10T12:40:48.361Z,4.75
2023-03-10T12:41:52.345Z,4.70
2023-03-10T12:42:54.072Z,4.50
2023-03-10T12:44:07.762Z,3.75
2023-03-10T12:45:28.598Z,2.90
2023-03-10T12:46:45.837Z,3.42
2023-03-10T12:48:07.452Z,3.65
2023-03-10T12:49:22.941Z,3.00
2023-03-10T12:50:44.624Z,3.75
2023-03-10T12:52:15.683Z,3.53
2023-03-10T12:53:38.920Z,4.57
2023-03-10T12:54:54.823Z,4.00
2023-03-10T12:56:14.619Z,4.22
2023-03-10T12:57:44.487Z,4.00
2023-03-10T12:58:58.740Z,4.03
2023-03-10T13:00:38.767Z,3.92
2023-03-10T13:01:55.535Z,3.95
2023-03-10T13:03:30.169Z,3.53
2023-03-10T13:04:32.909Z,3.75
2023-03-10T13:05:38.945Z,3.72
2023-03-10T13:06:41.462Z,3.90
2023-03-10T13:07:49.709Z,3.63
2023-03-10T13:09:14.692Z,3.60
2023-03-10T13:10:21.308Z,3.45
2023-03-10T13:11:26.173Z,4.20
2023-03-10T13:12:37.457Z,4.00
2023-03-10T13:13:40.228Z,3.45
2023-03-10T13:14:43.839Z,3.47
2023-03-10T13:16:06.818Z,3.60
2023-03-10T13:17:22.787Z,4.53
2023-03-10T13:18:26.044Z,4.90
2023-03-10T13:19:34.703Z,4.35
2023-03-10T13:20:37.695Z,4.75
2023-03-10T13:21:40.187Z,4.05
2023-03-10T13:22:52.836Z,3.55
2023-03-10T13:23:54.593Z,3.92
2023-03-10T13:25:05.692Z,3.60
2023-03-10T13:27:20.025Z,3.70
2023-03-10T13:28:22.974Z,3.70
2023-03-10T13:29:24.692Z,3.83
2023-03-10T13:30:28.020Z,4.22
2023-03-10T13:31:31.558Z,3.00
2023-03-10T13:32:33.534Z,4.55
2023-03-10T13:33:43.075Z,6.88
2023-03-10T13:34:45.369Z,15.27
2023-03-10T13:35:47.642Z,23.15
2023-03-10T13:36:49.901Z,14.23
2023-03-10T13:38:24.758Z,9.73
2023-03-10T13:39:28.015Z,6.93
2023-03-10T13:40:29.912Z,5.93
2023-03-10T13:41:37.472Z,6.72
2023-03-10T13:42:44.340Z,7.55
2023-03-10T13:43:48.700Z,5.80
2023-03-10T13:44:51.045Z,5.90
2023-03-10T13:45:57.321Z,5.22
2023-03-10T13:47:01.791Z,5.43
2023-03-10T13:48:05.152Z,5.32
2023-03-10T13:49:07.624Z,4.32
2023-03-10T13:50:14.770Z,4.28
2023-03-10T13:51:32.490Z,4.00
2023-03-10T13:52:34.374Z,4.38
2023-03-10T13:53:36.149Z,5.10
2023-03-10T13:54:40.414Z,5.18
2023-03-10T13:55:42.140Z,5.53
2023-03-10T13:56:44.656Z,6.70
2023-03-10T13:57:48.492Z,5.97
2023-03-10T13:58:52.541Z,5.68
2023-03-10T13:59:57.143Z,6.28
2023-03-10T14:01:01.029Z,5.97
2023-03-10T14:02:04.165Z,6.13
2023-03-10T14:03:08.495Z,5.53
2023-03-10T14:04:17.577Z,5.97
2023-03-10T14:05:50.276Z,6.47
2023-03-10T14:07:16.022Z,5.70
2023-03-10T14:08:32.464Z,5.45
2023-03-10T14:09:34.175Z,5.32
2023-03-10T14:10:35.884Z,5.43
2023-03-10T14:11:44.985Z,5.75
2023-03-10T14:12:46.763Z,5.47
2023-03-10T14:13:48.737Z,5.70
2023-03-10T14:14:52.016Z,6.40
2023-03-10T14:15:55.233Z,6.38
2023-03-10T14:17:00.044Z,6.97
2023-03-10T14:18:07.810Z,8.25
2023-03-10T14:19:13.166Z,9.45
2023-03-10T14:20:33.933Z,9.15
2023-03-10T14:21:36.596Z,9.75
2023-03-10T14:22:43.610Z,10.00
2023-03-10T14:23:45.342Z,10.93
2023-03-10T14:24:47.153Z,10.00